sensor_id;sensor_type;location;lat;lon;timestamp;pressure;altitude;pressure_sealevel;temperature
66180;BMP280;52986;44.028;20.466;2022-12-07T00:01:11;97969.50;;;7.98
66180;BMP280;52986;44.028;20.466;2022-12-07T00:03:38;97956.59;;;7.96
66180;BMP280;52986;44.028;20.466;2022-12-07T00:06:05;97953.50;;;7.98
66180;BMP280;52986;44.028;20.466;2022-12-07T00:08:31;97948.16;;;7.98
66180;BMP280;52986;44.028;20.466;2022-12-07T00:11:17;97952.31;;;7.99
66180;BMP280;52986;44.028;20.466;2022-12-07T00:13:43;97951.25;;;7.96
66180;BMP280;52986;44.028;20.466;2022-12-07T00:16:14;97949.00;;;7.95
66180;BMP280;52986;44.028;20.466;2022-12-07T00:18:41;97945.50;;;7.98
66180;BMP280;52986;44.028;20.466;2022-12-07T00:21:11;97952.69;;;8.01
66180;BMP280;52986;44.028;20.466;2022-12-07T00:23:37;97940.16;;;7.98
66180;BMP280;52986;44.028;20.466;2022-12-07T00:26:07;97947.84;;;7.96
66180;BMP280;52986;44.028;20.466;2022-12-07T00:28:34;97947.84;;;7.96
66180;BMP280;52986;44.028;20.466;2022-12-07T00:31:07;97940.59;;;7.96
66180;BMP280;52986;44.028;20.466;2022-12-07T00:33:34;97942.41;;;7.99
66180;BMP280;52986;44.028;20.466;2022-12-07T00:36:00;97944.00;;;7.97
66180;BMP280;52986;44.028;20.466;2022-12-07T00:38:28;97942.81;;;7.98
66180;BMP280;52986;44.028;20.466;2022-12-07T00:41:09;97942.09;;;7.97
66180;BMP280;52986;44.028;20.466;2022-12-07T00:43:34;97939.09;;;7.95
66180;BMP280;52986;44.028;20.466;2022-12-07T00:46:00;97941.75;;;7.95
66180;BMP280;52986;44.028;20.466;2022-12-07T00:48:25;97949.34;;;7.97
66180;BMP280;52986;44.028;20.466;2022-12-07T00:50:51;97960.41;;;7.95
66180;BMP280;52986;44.028;20.466;2022-12-07T00:53:17;97953.50;;;7.98
66180;BMP280;52986;44.028;20.466;2022-12-07T00:55:43;97945.06;;;7.99
66180;BMP280;52986;44.028;20.466;2022-12-07T00:58:08;97932.47;;;8.00
66180;BMP280;52986;44.028;20.466;2022-12-07T01:00:35;97932.16;;;7.98
66180;BMP280;52986;44.028;20.466;2022-12-07T01:03:02;97937.81;;;8.00
66180;BMP280;52986;44.028;20.466;2022-12-07T01:05:27;97925.13;;;8.04
66180;BMP280;52986;44.028;20.466;2022-12-07T01:07:53;97923.34;;;8.01
66180;BMP280;52986;44.028;20.466;2022-12-07T01:10:18;97920.69;;;8.01
66180;BMP280;52986;44.028;20.466;2022-12-07T01:12:43;97919.50;;;8.02
66180;BMP280;52986;44.028;20.466;2022-12-07T01:15:09;97916.91;;;7.98
66180;BMP280;52986;44.028;20.466;2022-12-07T01:17:34;97924.09;;;8.01
66180;BMP280;52986;44.028;20.466;2022-12-07T01:20:00;97916.72;;;8.05
66180;BMP280;52986;44.028;20.466;2022-12-07T01:22:26;97910.22;;;8.06
66180;BMP280;52986;44.028;20.466;2022-12-07T01:24:51;97897.28;;;8.05
66180;BMP280;52986;44.028;20.466;2022-12-07T01:27:17;97894.75;;;8.01
66180;BMP280;52986;44.028;20.466;2022-12-07T01:29:42;97896.66;;;8.01
66180;BMP280;52986;44.028;20.466;2022-12-07T01:32:07;97896.97;;;8.03
66180;BMP280;52986;44.028;20.466;2022-12-07T01:34:33;97893.13;;;8.04
66180;BMP280;52986;44.028;20.466;2022-12-07T01:36:58;97884.38;;;8.03
66180;BMP280;52986;44.028;20.466;2022-12-07T01:39:24;97879.78;;;8.04
66180;BMP280;52986;44.028;20.466;2022-12-07T01:41:50;97894.00;;;8.01
66180;BMP280;52986;44.028;20.466;2022-12-07T01:46:55;97901.25;;;8.00
66180;BMP280;52986;44.028;20.466;2022-12-07T01:49:44;97898.16;;;8.02
66180;BMP280;52986;44.028;20.466;2022-12-07T01:52:31;97907.34;;;8.01
66180;BMP280;52986;44.028;20.466;2022-12-07T01:55:04;97921.50;;;7.98
66180;BMP280;52986;44.028;20.466;2022-12-07T01:57:34;97924.09;;;8.01
66180;BMP280;52986;44.028;20.466;2022-12-07T02:00:00;97913.72;;;8.03
66180;BMP280;52986;44.028;20.466;2022-12-07T02:02:28;97891.63;;;8.03
66180;BMP280;52986;44.028;20.466;2022-12-07T02:04:59;97876.38;;;8.03
66180;BMP280;52986;44.028;20.466;2022-12-07T02:07:24;97867.19;;;8.04
66180;BMP280;52986;44.028;20.466;2022-12-07T02:09:50;97880.13;;;8.06
66180;BMP280;52986;44.028;20.466;2022-12-07T02:12:16;97864.13;;;8.06
66180;BMP280;52986;44.028;20.466;2022-12-07T02:14:41;97875.13;;;8.08
66180;BMP280;52986;44.028;20.466;2022-12-07T02:20:47;97870.88;;;8.10
66180;BMP280;52986;44.028;20.466;2022-12-07T02:23:34;97870.13;;;8.10
66180;BMP280;52986;44.028;20.466;2022-12-07T02:31:04;97862.44;;;8.12
66180;BMP280;52986;44.028;20.466;2022-12-07T02:33:35;97874.66;;;8.13
66180;BMP280;52986;44.028;20.466;2022-12-07T02:38:48;97861.78;;;8.08
66180;BMP280;52986;44.028;20.466;2022-12-07T02:41:26;97857.22;;;8.08
66180;BMP280;52986;44.028;20.466;2022-12-07T02:43:55;97855.72;;;8.07
66180;BMP280;52986;44.028;20.466;2022-12-07T02:46:25;97862.97;;;8.07
66180;BMP280;52986;44.028;20.466;2022-12-07T02:48:52;97867.13;;;8.08
66180;BMP280;52986;44.028;20.466;2022-12-07T02:51:18;97861.06;;;8.07
66180;BMP280;52986;44.028;20.466;2022-12-07T02:53:44;97860.31;;;8.07
66180;BMP280;52986;44.028;20.466;2022-12-07T03:04:05;97827.53;;;8.06
66180;BMP280;52986;44.028;20.466;2022-12-07T03:06:42;97822.59;;;8.05
66180;BMP280;52986;44.028;20.466;2022-12-07T03:09:23;97822.59;;;8.05
66180;BMP280;52986;44.028;20.466;2022-12-07T03:11:59;97818.03;;;8.05
66180;BMP280;52986;44.028;20.466;2022-12-07T03:14:37;97818.78;;;8.06
66180;BMP280;52986;44.028;20.466;2022-12-07T03:17:10;97814.59;;;8.05
66180;BMP280;52986;44.028;20.466;2022-12-07T03:19:39;97815.78;;;8.04
66180;BMP280;52986;44.028;20.466;2022-12-07T03:22:07;97816.22;;;8.02
66180;BMP280;52986;44.028;20.466;2022-12-07T03:24:37;97821.56;;;8.02
66180;BMP280;52986;44.028;20.466;2022-12-07T03:27:11;97824.97;;;8.03
66180;BMP280;52986;44.028;20.466;2022-12-07T03:30:04;97816.66;;;8.01
66180;BMP280;52986;44.028;20.466;2022-12-07T03:37:52;97807.91;;;8.00
66180;BMP280;52986;44.028;20.466;2022-12-07T03:40:26;97807.91;;;8.00
66180;BMP280;52986;44.028;20.466;2022-12-07T03:42:54;97804.47;;;8.00
66180;BMP280;52986;44.028;20.466;2022-12-07T03:45:25;97798.38;;;7.99
66180;BMP280;52986;44.028;20.466;2022-12-07T03:48:03;97800.41;;;7.95
66180;BMP280;52986;44.028;20.466;2022-12-07T03:50:38;97815.09;;;7.87
66180;BMP280;52986;44.028;20.466;2022-12-07T03:53:13;97808.25;;;7.86
66180;BMP280;52986;44.028;20.466;2022-12-07T03:55:43;97813.69;;;7.82
66180;BMP280;52986;44.028;20.466;2022-12-07T03:58:13;97819.00;;;7.82
66180;BMP280;52986;44.028;20.466;2022-12-07T04:00:42;97815.59;;;7.82
66180;BMP280;52986;44.028;20.466;2022-12-07T04:03:09;97813.69;;;7.82
66180;BMP280;52986;44.028;20.466;2022-12-07T04:05:34;97814.81;;;7.81
66180;BMP280;52986;44.028;20.466;2022-12-07T04:08:00;97808.13;;;7.77
66180;BMP280;52986;44.028;20.466;2022-12-07T04:10:25;97813.03;;;7.78
66180;BMP280;52986;44.028;20.466;2022-12-07T04:12:51;97813.84;;;7.75
66180;BMP280;52986;44.028;20.466;2022-12-07T04:15:16;97811.94;;;7.76
66180;BMP280;52986;44.028;20.466;2022-12-07T04:17:42;97811.53;;;7.77
66180;BMP280;52986;44.028;20.466;2022-12-07T04:20:08;97808.44;;;7.79
66180;BMP280;52986;44.028;20.466;2022-12-07T04:22:33;97806.81;;;7.81
66180;BMP280;52986;44.028;20.466;2022-12-07T04:24:59;97796.94;;;7.82
66180;BMP280;52986;44.028;20.466;2022-12-07T04:27:24;97804.50;;;7.83
66180;BMP280;52986;44.028;20.466;2022-12-07T04:29:49;97802.16;;;7.85
66180;BMP280;52986;44.028;20.466;2022-12-07T04:32:15;97788.16;;;7.81
66180;BMP280;52986;44.028;20.466;2022-12-07T04:34:40;97782.44;;;7.83
66180;BMP280;52986;44.028;20.466;2022-12-07T04:37:05;97781.16;;;7.87
66180;BMP280;52986;44.028;20.466;2022-12-07T04:39:32;97777.97;;;7.92
66180;BMP280;52986;44.028;20.466;2022-12-07T04:41:59;97781.31;;;7.97
66180;BMP280;52986;44.028;20.466;2022-12-07T04:44:25;97771.41;;;7.97
66180;BMP280;52986;44.028;20.466;2022-12-07T04:46:51;97764.56;;;7.96
66180;BMP280;52986;44.028;20.466;2022-12-07T04:49:17;97767.66;;;7.95
66180;BMP280;52986;44.028;20.466;2022-12-07T04:51:43;97761.56;;;7.94
66180;BMP280;52986;44.028;20.466;2022-12-07T04:54:09;97759.22;;;7.96
66180;BMP280;52986;44.028;20.466;2022-12-07T04:56:34;97753.47;;;7.98
66180;BMP280;52986;44.028;20.466;2022-12-07T04:59:00;97773.38;;;7.93
66180;BMP280;52986;44.028;20.466;2022-12-07T05:01:26;97763.16;;;7.91
66180;BMP280;52986;44.028;20.466;2022-12-07T05:03:52;97768.41;;;7.95
66180;BMP280;52986;44.028;20.466;2022-12-07T05:06:17;97771.41;;;7.97
66180;BMP280;52986;44.028;20.466;2022-12-07T05:08:43;97764.47;;;8.00
66180;BMP280;52986;44.028;20.466;2022-12-07T05:11:09;97758.38;;;7.99
66180;BMP280;52986;44.028;20.466;2022-12-07T05:13:35;97757.31;;;7.97
66180;BMP280;52986;44.028;20.466;2022-12-07T05:16:01;97755.06;;;7.95
66180;BMP280;52986;44.028;20.466;2022-12-07T05:18:27;97762.72;;;7.93
66180;BMP280;52986;44.028;20.466;2022-12-07T05:20:52;97756.63;;;7.92
66180;BMP280;52986;44.028;20.466;2022-12-07T05:23:18;97761.22;;;7.92
66180;BMP280;52986;44.028;20.466;2022-12-07T05:25:44;97747.88;;;7.92
66180;BMP280;52986;44.028;20.466;2022-12-07T05:28:10;97760.81;;;7.93
66180;BMP280;52986;44.028;20.466;2022-12-07T05:30:36;97756.63;;;7.92
66180;BMP280;52986;44.028;20.466;2022-12-07T05:33:02;97761.97;;;7.92
66180;BMP280;52986;44.028;20.466;2022-12-07T05:35:28;97753.97;;;7.92
66180;BMP280;52986;44.028;20.466;2022-12-07T05:37:55;97744.19;;;7.89
66180;BMP280;52986;44.028;20.466;2022-12-07T05:40:20;97751.00;;;7.90
66180;BMP280;52986;44.028;20.466;2022-12-07T05:42:46;97749.38;;;7.93
66180;BMP280;52986;44.028;20.466;2022-12-07T05:45:11;97746.31;;;7.95
66180;BMP280;52986;44.028;20.466;2022-12-07T05:47:37;97742.81;;;7.98
66180;BMP280;52986;44.028;20.466;2022-12-07T05:50:03;97736.28;;;7.99
66180;BMP280;52986;44.028;20.466;2022-12-07T05:52:29;97738.72;;;7.93
66180;BMP280;52986;44.028;20.466;2022-12-07T05:54:54;97735.84;;;7.87
66180;BMP280;52986;44.028;20.466;2022-12-07T05:57:20;97738.50;;;7.87
66180;BMP280;52986;44.028;20.466;2022-12-07T05:59:45;97738.44;;;7.91
66180;BMP280;52986;44.028;20.466;2022-12-07T06:02:12;97737.91;;;7.96
66180;BMP280;52986;44.028;20.466;2022-12-07T06:04:40;97734.06;;;7.97
66180;BMP280;52986;44.028;20.466;2022-12-07T06:07:06;97738.56;;;8.00
66180;BMP280;52986;44.028;20.466;2022-12-07T06:09:33;97734.28;;;8.03
66180;BMP280;52986;44.028;20.466;2022-12-07T06:11:58;97738.44;;;8.04
66180;BMP280;52986;44.028;20.466;2022-12-07T06:14:42;97736.22;;;8.02
66180;BMP280;52986;44.028;20.466;2022-12-07T06:17:08;97742.19;;;8.06
66180;BMP280;52986;44.028;20.466;2022-12-07T06:19:34;97742.41;;;8.12
66180;BMP280;52986;44.028;20.466;2022-12-07T06:22:00;97739.94;;;8.17
66180;BMP280;52986;44.028;20.466;2022-12-07T06:24:25;97748.69;;;8.18
66180;BMP280;52986;44.028;20.466;2022-12-07T06:26:51;97750.31;;;8.15
66180;BMP280;52986;44.028;20.466;2022-12-07T06:29:17;97756.38;;;8.16
66180;BMP280;52986;44.028;20.466;2022-12-07T06:31:42;97760.91;;;8.19
66180;BMP280;52986;44.028;20.466;2022-12-07T06:34:14;97763.88;;;8.21
66180;BMP280;52986;44.028;20.466;2022-12-07T06:36:39;97767.28;;;8.21
66180;BMP280;52986;44.028;20.466;2022-12-07T06:39:06;97760.78;;;8.23
66180;BMP280;52986;44.028;20.466;2022-12-07T06:41:31;97757.25;;;8.26
66180;BMP280;52986;44.028;20.466;2022-12-07T06:43:57;97771.34;;;8.26
66180;BMP280;52986;44.028;20.466;2022-12-07T06:46:23;97768.19;;;8.31
66180;BMP280;52986;44.028;20.466;2022-12-07T06:48:48;97765.81;;;8.33
66180;BMP280;52986;44.028;20.466;2022-12-07T06:51:14;97756.94;;;8.36
66180;BMP280;52986;44.028;20.466;2022-12-07T06:53:39;97747.78;;;8.37
66180;BMP280;52986;44.028;20.466;2022-12-07T06:56:04;97757.91;;;8.42
66180;BMP280;52986;44.028;20.466;2022-12-07T06:58:30;97755.13;;;8.46
66180;BMP280;52986;44.028;20.466;2022-12-07T07:00:56;97761.97;;;8.47
66180;BMP280;52986;44.028;20.466;2022-12-07T07:03:22;97766.28;;;8.44
66180;BMP280;52986;44.028;20.466;2022-12-07T07:05:47;97767.66;;;8.49
66180;BMP280;52986;44.028;20.466;2022-12-07T07:08:13;97756.13;;;8.52
66180;BMP280;52986;44.028;20.466;2022-12-07T07:10:39;97761.78;;;8.54
66180;BMP280;52986;44.028;20.466;2022-12-07T07:13:04;97759.75;;;8.58
66180;BMP280;52986;44.028;20.466;2022-12-07T07:15:31;97757.59;;;8.66
66180;BMP280;52986;44.028;20.466;2022-12-07T07:17:56;97753.66;;;8.70
66180;BMP280;52986;44.028;20.466;2022-12-07T07:20:22;97750.91;;;8.74
66180;BMP280;52986;44.028;20.466;2022-12-07T07:22:48;97744.25;;;8.78
66180;BMP280;52986;44.028;20.466;2022-12-07T07:25:14;97751.09;;;8.79
66180;BMP280;52986;44.028;20.466;2022-12-07T07:27:40;97745.22;;;8.85
66180;BMP280;52986;44.028;20.466;2022-12-07T07:30:06;97744.03;;;8.86
66180;BMP280;52986;44.028;20.466;2022-12-07T07:32:31;97754.41;;;8.84
66180;BMP280;52986;44.028;20.466;2022-12-07T07:34:57;97760.50;;;8.84
66180;BMP280;52986;44.028;20.466;2022-12-07T07:37:22;97758.75;;;8.90
66180;BMP280;52986;44.028;20.466;2022-12-07T07:39:48;97750.75;;;8.90
66180;BMP280;52986;44.028;20.466;2022-12-07T07:42:14;97750.66;;;8.94
66180;BMP280;52986;44.028;20.466;2022-12-07T07:44:39;97750.13;;;8.99
66180;BMP280;52986;44.028;20.466;2022-12-07T07:47:05;97754.59;;;9.02
66180;BMP280;52986;44.028;20.466;2022-12-07T07:49:30;97755.22;;;9.06
66180;BMP280;52986;44.028;20.466;2022-12-07T07:51:56;97754.47;;;9.05
66180;BMP280;52986;44.028;20.466;2022-12-07T07:54:21;97755.34;;;9.02
66180;BMP280;52986;44.028;20.466;2022-12-07T07:56:46;97760.56;;;9.06
66180;BMP280;52986;44.028;20.466;2022-12-07T07:59:12;97765.91;;;9.06
66180;BMP280;52986;44.028;20.466;2022-12-07T08:01:37;97764.88;;;9.03
66180;BMP280;52986;44.028;20.466;2022-12-07T08:04:02;97762.78;;;9.07
66180;BMP280;52986;44.028;20.466;2022-12-07T08:06:28;97756.72;;;9.07
66180;BMP280;52986;44.028;20.466;2022-12-07T08:08:53;97766.66;;;9.06
66180;BMP280;52986;44.028;20.466;2022-12-07T08:11:19;97768.56;;;9.06
66180;BMP280;52986;44.028;20.466;2022-12-07T08:13:45;97768.69;;;9.02
66180;BMP280;52986;44.028;20.466;2022-12-07T08:16:12;97772.88;;;9.03
66180;BMP280;52986;44.028;20.466;2022-12-07T08:18:39;97769.13;;;9.01
66180;BMP280;52986;44.028;20.466;2022-12-07T08:21:05;97773.41;;;8.98
66180;BMP280;52986;44.028;20.466;2022-12-07T08:23:31;97769.44;;;9.03
66180;BMP280;52986;44.028;20.466;2022-12-07T08:26:01;97773.81;;;9.09
66180;BMP280;52986;44.028;20.466;2022-12-07T08:28:28;97767.31;;;9.10
66180;BMP280;52986;44.028;20.466;2022-12-07T08:31:01;97764.06;;;9.16
66180;BMP280;52986;44.028;20.466;2022-12-07T08:33:27;97776.69;;;9.15
66180;BMP280;52986;44.028;20.466;2022-12-07T08:35:53;97772.09;;;9.16
66180;BMP280;52986;44.028;20.466;2022-12-07T08:38:18;97768.47;;;9.22
66180;BMP280;52986;44.028;20.466;2022-12-07T08:40:43;97768.97;;;9.30
66180;BMP280;52986;44.028;20.466;2022-12-07T08:43:09;97776.84;;;9.33
66180;BMP280;52986;44.028;20.466;2022-12-07T08:45:34;97766.34;;;9.39
66180;BMP280;52986;44.028;20.466;2022-12-07T08:48:10;97780.22;;;9.59
66180;BMP280;52986;44.028;20.466;2022-12-07T08:50:37;97775.91;;;9.62
66180;BMP280;52986;44.028;20.466;2022-12-07T08:53:04;97779.13;;;9.57
66180;BMP280;52986;44.028;20.466;2022-12-07T08:55:31;97784.47;;;9.57
66180;BMP280;52986;44.028;20.466;2022-12-07T08:57:58;97772.72;;;9.54
66180;BMP280;52986;44.028;20.466;2022-12-07T09:00:24;97773.16;;;9.53
66180;BMP280;52986;44.028;20.466;2022-12-07T09:02:50;97770.50;;;9.53
66180;BMP280;52986;44.028;20.466;2022-12-07T09:05:16;97777.56;;;9.47
66180;BMP280;52986;44.028;20.466;2022-12-07T09:07:43;97779.25;;;9.53
66180;BMP280;52986;44.028;20.466;2022-12-07T09:10:10;97781.41;;;9.58
66180;BMP280;52986;44.028;20.466;2022-12-07T09:12:36;97778.91;;;9.64
66180;BMP280;52986;44.028;20.466;2022-12-07T09:15:01;97778.31;;;9.69
66180;BMP280;52986;44.028;20.466;2022-12-07T09:17:27;97784.41;;;9.69
66180;BMP280;52986;44.028;20.466;2022-12-07T09:19:52;97782.28;;;9.77
66180;BMP280;52986;44.028;20.466;2022-12-07T09:22:18;97788.44;;;9.87
66180;BMP280;52986;44.028;20.466;2022-12-07T09:24:43;97785.44;;;9.85
66180;BMP280;52986;44.028;20.466;2022-12-07T09:27:11;97784.78;;;9.81
66180;BMP280;52986;44.028;20.466;2022-12-07T09:29:36;97775.06;;;9.87
66180;BMP280;52986;44.028;20.466;2022-12-07T09:32:02;97769.94;;;9.80
66180;BMP280;52986;44.028;20.466;2022-12-07T09:34:30;97772.94;;;9.82
66180;BMP280;52986;44.028;20.466;2022-12-07T09:36:56;97779.97;;;9.88
66180;BMP280;52986;44.028;20.466;2022-12-07T09:39:22;97772.38;;;9.87
66180;BMP280;52986;44.028;20.466;2022-12-07T09:41:47;97772.44;;;9.74
66180;BMP280;52986;44.028;20.466;2022-12-07T09:44:16;97768.81;;;9.68
66180;BMP280;52986;44.028;20.466;2022-12-07T09:46:44;97762.97;;;9.60
66180;BMP280;52986;44.028;20.466;2022-12-07T09:49:22;97771.22;;;9.53
66180;BMP280;52986;44.028;20.466;2022-12-07T09:51:59;97766.13;;;9.46
66180;BMP280;52986;44.028;20.466;2022-12-07T09:54:24;97768.06;;;9.46
66180;BMP280;52986;44.028;20.466;2022-12-07T09:56:50;97767.13;;;9.39
66180;BMP280;52986;44.028;20.466;2022-12-07T09:59:17;97775.81;;;9.31
66180;BMP280;52986;44.028;20.466;2022-12-07T10:01:45;97773.06;;;9.22
66180;BMP280;52986;44.028;20.466;2022-12-07T10:04:18;97774.75;;;9.16
66180;BMP280;52986;44.028;20.466;2022-12-07T10:06:46;97777.88;;;9.01
66180;BMP280;52986;44.028;20.466;2022-12-07T10:09:14;97774.16;;;8.99
66180;BMP280;52986;44.028;20.466;2022-12-07T10:14:28;97768.38;;;8.88
66180;BMP280;52986;44.028;20.466;2022-12-07T10:16:54;97767.22;;;8.89
66180;BMP280;52986;44.028;20.466;2022-12-07T10:19:24;97766.56;;;8.85
66180;BMP280;52986;44.028;20.466;2022-12-07T10:22:16;97770.94;;;8.78
66180;BMP280;52986;44.028;20.466;2022-12-07T10:24:43;97769.88;;;8.89
66180;BMP280;52986;44.028;20.466;2022-12-07T10:29:50;97777.38;;;8.81
66180;BMP280;52986;44.028;20.466;2022-12-07T10:34:42;97765.00;;;8.74
66180;BMP280;52986;44.028;20.466;2022-12-07T10:39:53;97768.28;;;8.78
66180;BMP280;52986;44.028;20.466;2022-12-07T10:42:29;97774.59;;;8.72
66180;BMP280;52986;44.028;20.466;2022-12-07T10:45:16;97774.28;;;8.70
66180;BMP280;52986;44.028;20.466;2022-12-07T10:50:51;97773.59;;;8.66
66180;BMP280;52986;44.028;20.466;2022-12-07T10:53:30;97762.41;;;8.71
66180;BMP280;52986;44.028;20.466;2022-12-07T10:56:33;97767.88;;;8.67
66180;BMP280;52986;44.028;20.466;2022-12-07T11:01:58;97749.28;;;8.64
66180;BMP280;52986;44.028;20.466;2022-12-07T11:10:18;97742.88;;;8.61
66180;BMP280;52986;44.028;20.466;2022-12-07T11:21:09;97754.53;;;8.67
66180;BMP280;52986;44.028;20.466;2022-12-07T11:24:14;97748.09;;;8.77
66180;BMP280;52986;44.028;20.466;2022-12-07T11:30:02;97750.34;;;8.79
66180;BMP280;52986;44.028;20.466;2022-12-07T11:37:44;97746.16;;;8.78
66180;BMP280;52986;44.028;20.466;2022-12-07T11:40:43;97744.59;;;8.80
66180;BMP280;52986;44.028;20.466;2022-12-07T11:45:42;97735.16;;;8.89
66180;BMP280;52986;44.028;20.466;2022-12-07T11:50:52;97743.28;;;8.85
66180;BMP280;52986;44.028;20.466;2022-12-07T11:53:22;97732.72;;;8.94
66180;BMP280;52986;44.028;20.466;2022-12-07T12:01:36;97743.41;;;8.94
66180;BMP280;52986;44.028;20.466;2022-12-07T12:06:41;97732.59;;;8.98
66180;BMP280;52986;44.028;20.466;2022-12-07T12:09:11;97730.03;;;8.94
66180;BMP280;52986;44.028;20.466;2022-12-07T12:19:58;97722.34;;;8.84
66180;BMP280;52986;44.028;20.466;2022-12-07T12:22:38;97720.22;;;8.78
66180;BMP280;52986;44.028;20.466;2022-12-07T12:25:07;97719.47;;;8.78
66180;BMP280;52986;44.028;20.466;2022-12-07T12:27:37;97719.88;;;8.76
66180;BMP280;52986;44.028;20.466;2022-12-07T12:30:07;97715.53;;;8.70
66180;BMP280;52986;44.028;20.466;2022-12-07T12:32:42;97718.19;;;8.70
66180;BMP280;52986;44.028;20.466;2022-12-07T12:35:36;97719.69;;;8.71
66180;BMP280;52986;44.028;20.466;2022-12-07T12:40:54;97717.03;;;8.71
66180;BMP280;52986;44.028;20.466;2022-12-07T12:43:48;97726.28;;;8.66
66180;BMP280;52986;44.028;20.466;2022-12-07T12:49:35;97722.13;;;8.65
66180;BMP280;52986;44.028;20.466;2022-12-07T12:55:29;97714.59;;;8.64
66180;BMP280;52986;44.028;20.466;2022-12-07T13:03:55;97701.44;;;8.69
66180;BMP280;52986;44.028;20.466;2022-12-07T13:08:49;97704.41;;;8.71
66180;BMP280;52986;44.028;20.466;2022-12-07T13:11:28;97706.78;;;8.69
66180;BMP280;52986;44.028;20.466;2022-12-07T13:14:09;97703.78;;;8.67
66180;BMP280;52986;44.028;20.466;2022-12-07T13:16:40;97708.69;;;8.69
66180;BMP280;52986;44.028;20.466;2022-12-07T13:27:24;97708.69;;;8.56
66180;BMP280;52986;44.028;20.466;2022-12-07T13:29:50;97718.22;;;8.57
66180;BMP280;52986;44.028;20.466;2022-12-07T13:32:32;97725.47;;;8.57
66180;BMP280;52986;44.028;20.466;2022-12-07T13:34:57;97721.00;;;8.54
66180;BMP280;52986;44.028;20.466;2022-12-07T13:37:31;97722.59;;;8.51
66180;BMP280;52986;44.028;20.466;2022-12-07T13:39:59;97727.06;;;8.54
66180;BMP280;52986;44.028;20.466;2022-12-07T13:44:56;97731.88;;;8.46
66180;BMP280;52986;44.028;20.466;2022-12-07T13:47:34;97734.53;;;8.46
66180;BMP280;52986;44.028;20.466;2022-12-07T13:49:59;97735.72;;;8.45
66180;BMP280;52986;44.028;20.466;2022-12-07T13:52:30;97729.63;;;8.45
66180;BMP280;52986;44.028;20.466;2022-12-07T13:55:01;97739.25;;;8.42
66180;BMP280;52986;44.028;20.466;2022-12-07T13:57:29;97733.69;;;8.37
66180;BMP280;52986;44.028;20.466;2022-12-07T13:59:56;97725.81;;;8.33
66180;BMP280;52986;44.028;20.466;2022-12-07T14:02:31;97728.56;;;8.30
66180;BMP280;52986;44.028;20.466;2022-12-07T14:07:34;97733.13;;;8.29
66180;BMP280;52986;44.028;20.466;2022-12-07T14:10:04;97739.34;;;8.26
66180;BMP280;52986;44.028;20.466;2022-12-07T14:12:30;97740.41;;;8.29
66180;BMP280;52986;44.028;20.466;2022-12-07T14:14:57;97747.00;;;8.24
66180;BMP280;52986;44.028;20.466;2022-12-07T14:17:25;97745.53;;;8.23
66180;BMP280;52986;44.028;20.466;2022-12-07T14:20:01;97748.63;;;8.21
66180;BMP280;52986;44.028;20.466;2022-12-07T14:27:37;97746.25;;;8.11
66180;BMP280;52986;44.028;20.466;2022-12-07T14:30:03;97750.41;;;8.12
66180;BMP280;52986;44.028;20.466;2022-12-07T14:32:30;97754.59;;;8.13
66180;BMP280;52986;44.028;20.466;2022-12-07T14:35:18;97753.41;;;8.14
66180;BMP280;52986;44.028;20.466;2022-12-07T14:37:45;97752.75;;;8.10
66180;BMP280;52986;44.028;20.466;2022-12-07T14:40:20;97752.00;;;8.09
66180;BMP280;52986;44.028;20.466;2022-12-07T14:42:47;97758.94;;;8.07
66180;BMP280;52986;44.028;20.466;2022-12-07T14:45:16;97759.47;;;8.02
66180;BMP280;52986;44.028;20.466;2022-12-07T14:47:42;97765.97;;;8.01
66180;BMP280;52986;44.028;20.466;2022-12-07T14:50:12;97757.63;;;7.99
66180;BMP280;52986;44.028;20.466;2022-12-07T14:52:38;97761.47;;;7.98
66180;BMP280;52986;44.028;20.466;2022-12-07T14:55:04;97760.06;;;7.93
66180;BMP280;52986;44.028;20.466;2022-12-07T14:57:30;97767.00;;;7.90
66180;BMP280;52986;44.028;20.466;2022-12-07T14:59:55;97757.16;;;7.87
66180;BMP280;52986;44.028;20.466;2022-12-07T15:02:20;97761.84;;;7.83
66180;BMP280;52986;44.028;20.466;2022-12-07T15:04:46;97773.28;;;7.84
66180;BMP280;52986;44.028;20.466;2022-12-07T15:07:19;97782.44;;;7.83
66180;BMP280;52986;44.028;20.466;2022-12-07T15:09:45;97776.88;;;7.77
66180;BMP280;52986;44.028;20.466;2022-12-07T15:12:10;97773.47;;;7.77
66180;BMP280;52986;44.028;20.466;2022-12-07T15:14:36;97787.94;;;7.76
66180;BMP280;52986;44.028;20.466;2022-12-07T15:17:01;97773.88;;;7.75
66180;BMP280;52986;44.028;20.466;2022-12-07T15:19:27;97775.88;;;7.71
66180;BMP280;52986;44.028;20.466;2022-12-07T15:21:53;97782.06;;;7.68
66180;BMP280;52986;44.028;20.466;2022-12-07T15:24:19;97778.22;;;7.69
66180;BMP280;52986;44.028;20.466;2022-12-07T15:26:44;97785.78;;;7.71
66180;BMP280;52986;44.028;20.466;2022-12-07T15:29:10;97784.22;;;7.73
66180;BMP280;52986;44.028;20.466;2022-12-07T15:31:36;97785.06;;;7.70
66180;BMP280;52986;44.028;20.466;2022-12-07T15:34:02;97789.53;;;7.73
66180;BMP280;52986;44.028;20.466;2022-12-07T15:36:30;97788.78;;;7.73
66180;BMP280;52986;44.028;20.466;2022-12-07T15:38:56;97801.28;;;7.76
66180;BMP280;52986;44.028;20.466;2022-12-07T15:41:22;97803.19;;;7.75
66180;BMP280;52986;44.028;20.466;2022-12-07T15:43:47;97799.88;;;7.71
66180;BMP280;52986;44.028;20.466;2022-12-07T15:46:39;97808.63;;;7.72
66180;BMP280;52986;44.028;20.466;2022-12-07T15:49:14;97818.22;;;7.69
66180;BMP280;52986;44.028;20.466;2022-12-07T15:51:41;97819.38;;;7.68
66180;BMP280;52986;44.028;20.466;2022-12-07T15:54:06;97819.72;;;7.70
66180;BMP280;52986;44.028;20.466;2022-12-07T15:56:32;97822.47;;;7.67
66180;BMP280;52986;44.028;20.466;2022-12-07T15:58:57;97824.38;;;7.66
66180;BMP280;52986;44.028;20.466;2022-12-07T16:01:23;97830.13;;;7.65
66180;BMP280;52986;44.028;20.466;2022-12-07T16:03:48;97838.53;;;7.63
66180;BMP280;52986;44.028;20.466;2022-12-07T16:06:17;97843.53;;;7.61
66180;BMP280;52986;44.028;20.466;2022-12-07T16:08:44;97839.78;;;7.58
66180;BMP280;52986;44.028;20.466;2022-12-07T16:11:11;97841.28;;;7.59
66180;BMP280;52986;44.028;20.466;2022-12-07T16:13:37;97840.88;;;7.61
66180;BMP280;52986;44.028;20.466;2022-12-07T16:16:08;97845.88;;;7.59
66180;BMP280;52986;44.028;20.466;2022-12-07T16:18:33;97848.22;;;7.57
66180;BMP280;52986;44.028;20.466;2022-12-07T16:20:59;97844.03;;;7.56